Terminal Aerodrome Forecast
Issued by NWS

Home | Current Version | Previous Version | Text Only | Print | Product List | Glossary On
Versions: 1 2 3 4 5 6 7 8 9 10 11 12 13 14 15 16 17 18 19 20 21 22
000
FTUS43 KLSX 240800 AAA
TAFUIN
TAF AMD
KUIN 240835Z 2409/2506 08011KT 4SM -SHRA OVC010
      TEMPO 2409/2412 -FZRA
     FM241400 10013KT 6SM -SHRA OVC015
     FM241800 10014G23KT P6SM OVC020
     FM250300 17013KT P6SM OVC015
      TEMPO 2503/2505 4SM -SHRA=

USA.gov is the U.S. government's official web portal to all federal, state and local government web resources and services.